Time;durP1;ratioP1;P1;durP2;ratioP2;P2;SDS_P1;SDS_P2;PMS_P1;PMS_P2;Temp;Humidity;BMP_temperature;BMP_pressure;BME280_temperature;BME280_humidity;BME280_pressure;Samples;Min_cycle;Max_cycle;Signal;HPM_P1;HPM_P2
2023/06/03 00:01:11;;;;;;;0.40;0.40;;;;;;;9.04;41.93;101366.75;5085700;28;20031;-69
2023/06/03 00:03:39;;;;;;;0.38;0.38;;;;;;;9.05;41.97;101369.38;5085579;28;20109;-70
2023/06/03 00:06:05;;;;;;;0.40;0.40;;;;;;;9.10;42.01;101377.19;5085871;28;20115;-71
2023/06/03 00:08:30;;;;;;;0.40;0.40;;;;;;;9.12;41.87;101367.72;5085766;28;20030;-70
2023/06/03 00:10:56;;;;;;;0.40;0.40;;;;;;;9.13;41.92;101369.47;5085662;28;20048;-72
2023/06/03 00:13:22;;;;;;;0.40;0.40;;;;;;;9.15;42.09;101362.56;5085640;28;20029;-70
2023/06/03 00:15:47;;;;;;;0.38;0.38;;;;;;;9.15;43.42;101353.94;5067387;28;20025;-70
2023/06/03 00:18:13;;;;;;;0.40;0.40;;;;;;;9.25;43.42;101368.75;5085150;28;20021;-69
2023/06/03 00:20:39;;;;;;;0.40;0.40;;;;;;;9.28;44.55;101354.97;5085502;28;20108;-70
2023/06/03 00:23:05;;;;;;;0.40;0.40;;;;;;;9.37;45.39;101365.44;5085362;28;20095;-71
2023/06/03 00:25:34;;;;;;;0.40;0.40;;;;;;;9.44;45.94;101362.94;5067427;28;20032;-71
2023/06/03 00:28:00;;;;;;;0.40;0.40;;;;;;;9.50;45.86;101369.06;5085122;28;20036;-70
2023/06/03 00:30:26;;;;;;;1.83;1.75;;;;;;;9.55;47.75;101361.34;5067076;28;20016;-70
2023/06/03 00:32:51;;;;;;;0.35;0.35;;;;;;;9.67;48.50;101369.25;5085023;28;20103;-69
2023/06/03 00:35:17;;;;;;;0.40;0.40;;;;;;;9.72;47.59;101365.81;5085179;28;20173;-71
2023/06/03 00:37:42;;;;;;;0.40;0.40;;;;;;;9.72;46.77;101364.09;5085061;28;20024;-70
2023/06/03 00:40:08;;;;;;;0.40;0.40;;;;;;;9.71;48.51;101361.50;5085146;28;20076;-70
2023/06/03 00:42:34;;;;;;;0.40;0.40;;;;;;;9.78;49.90;101358.97;5084405;28;20100;-70
2023/06/03 00:44:59;;;;;;;0.40;0.40;;;;;;;9.87;50.84;101363.38;5067006;28;20055;-70
2023/06/03 00:47:25;;;;;;;0.40;0.40;;;;;;;9.97;51.41;101350.53;5084808;28;20514;-71
2023/06/03 00:49:51;;;;;;;0.30;0.30;;;;;;;10.01;51.81;101355.75;5084475;28;20023;-70
2023/06/03 00:52:17;;;;;;;0.40;0.40;;;;;;;10.05;51.78;101348.84;5066789;28;20039;-70
2023/06/03 00:54:43;;;;;;;0.40;0.40;;;;;;;9.97;52.13;101342.75;5084654;28;20024;-70
2023/06/03 00:57:10;;;;;;;0.40;0.40;;;;;;;9.91;52.09;101349.59;5084740;28;20020;-70
2023/06/03 00:59:35;;;;;;;0.30;0.30;;;;;;;9.90;52.43;101352.19;5084534;28;20329;-71
2023/06/03 01:02:00;;;;;;;0.40;0.40;;;;;;;9.86;52.53;101343.50;5084684;28;20033;-70
2023/06/03 01:04:28;;;;;;;0.40;0.40;;;;;;;9.85;52.45;101341.75;5066264;28;20028;-71
2023/06/03 01:07:13;;;;;;;0.40;0.40;;;;;;;9.88;52.93;101346.09;5084485;28;20012;-70
2023/06/03 01:10:02;;;;;;;0.30;0.30;;;;;;;9.88;53.11;101346.09;5066066;28;20020;-71
2023/06/03 01:12:45;;;;;;;0.40;0.40;;;;;;;9.85;53.62;101352.13;5084265;28;20027;-70
2023/06/03 01:15:32;;;;;;;0.40;0.40;;;;;;;9.75;54.01;101345.97;5084522;28;20028;-70
2023/06/03 01:18:03;;;;;;;0.40;0.40;;;;;;;9.70;54.55;101344.19;5084276;28;20020;-69
2023/06/03 01:20:29;;;;;;;0.30;0.30;;;;;;;9.72;55.18;101347.66;5084253;28;20037;-69
2023/06/03 01:23:14;;;;;;;0.40;0.40;;;;;;;9.82;55.72;101341.72;5084109;28;20028;-70
2023/06/03 01:25:42;;;;;;;0.40;0.40;;;;;;;9.79;55.59;101339.97;5084422;28;20025;-69
2023/06/03 01:28:08;;;;;;;0.40;0.40;;;;;;;9.82;55.67;101341.72;5084209;28;20489;-70
2023/06/03 01:30:33;;;;;;;0.40;0.40;;;;;;;9.75;55.60;101337.31;5084075;28;20047;-70
2023/06/03 01:32:59;;;;;;;0.40;0.40;;;;;;;9.68;55.85;101336.38;5083987;28;20119;-69
2023/06/03 01:35:25;;;;;;;0.40;0.40;;;;;;;9.62;55.98;101346.69;5084193;28;20027;-70
2023/06/03 01:37:51;;;;;;;0.30;0.30;;;;;;;9.52;56.25;101344.00;5084086;28;20024;-71
2023/06/03 01:40:17;;;;;;;0.40;0.40;;;;;;;9.42;56.34;101339.59;5065909;28;20013;-70
2023/06/03 01:42:42;;;;;;;0.40;0.40;;;;;;;9.46;56.65;101337.88;5083799;28;20052;-70
2023/06/03 01:45:08;;;;;;;0.30;0.30;;;;;;;9.46;56.65;101340.47;5083963;28;20020;-70
2023/06/03 01:47:34;;;;;;;0.70;0.70;;;;;;;9.41;56.67;101336.09;5083988;28;20400;-71
2023/06/03 01:49:59;;;;;;;0.40;0.40;;;;;;;9.41;56.85;101343.88;5065612;28;20021;-70
2023/06/03 01:52:26;;;;;;;0.40;0.40;;;;;;;9.32;57.01;101343.78;5083944;28;20029;-69
2023/06/03 01:54:51;;;;;;;0.40;0.40;;;;;;;9.16;57.34;101330.66;5084040;28;20088;-70
2023/06/03 01:57:18;;;;;;;0.40;0.40;;;;;;;9.14;57.44;101332.34;5083833;28;20036;-70
2023/06/03 01:59:43;;;;;;;0.40;0.40;;;;;;;9.10;57.47;101334.88;5065768;28;20016;-69
2023/06/03 02:02:08;;;;;;;0.50;0.50;;;;;;;9.15;57.11;101331.47;5083458;28;20036;-69
2023/06/03 02:04:34;;;;;;;0.40;0.40;;;;;;;9.20;56.91;101333.28;5083607;28;20024;-70
2023/06/03 02:07:00;;;;;;;0.40;0.40;;;;;;;9.17;57.12;101324.59;5083669;28;20020;-70
2023/06/03 02:09:27;;;;;;;0.40;0.40;;;;;;;9.11;57.21;101332.31;5065754;28;20027;-69
2023/06/03 02:11:56;;;;;;;0.30;0.30;;;;;;;9.03;57.66;101339.97;5083473;28;20464;-69
2023/06/03 02:14:22;;;;;;;0.30;0.30;;;;;;;9.12;57.67;101331.44;5065852;28;20040;-70
2023/06/03 02:16:48;;;;;;;0.40;0.40;;;;;;;9.14;57.44;101337.53;5083745;28;20439;-71
2023/06/03 02:19:18;;;;;;;0.40;0.40;;;;;;;9.01;57.46;101336.50;5083442;28;20465;-70
2023/06/03 02:21:45;;;;;;;1.17;1.10;;;;;;;8.87;57.43;101328.53;5083507;28;20108;-70
2023/06/03 02:24:14;;;;;;;0.40;0.40;;;;;;;8.73;57.29;101335.25;5065691;28;20027;-70
2023/06/03 02:26:49;;;;;;;0.40;0.40;;;;;;;8.57;57.39;101329.84;5083589;28;20107;-70
2023/06/03 02:29:27;;;;;;;0.30;0.30;;;;;;;8.44;57.42;101328.75;5083613;28;20017;-70
2023/06/03 02:31:54;;;;;;;0.32;0.32;;;;;;;8.36;57.36;101330.34;5083356;28;20039;-70
2023/06/03 02:34:21;;;;;;;0.40;0.40;;;;;;;8.29;57.54;101332.84;5083294;28;20021;-70
2023/06/03 02:36:46;;;;;;;0.40;0.40;;;;;;;8.26;57.75;101330.22;5083525;28;20024;-70
2023/06/03 02:39:13;;;;;;;0.40;0.40;;;;;;;8.25;57.94;101330.19;5083590;28;20025;-70
2023/06/03 02:41:41;;;;;;;0.50;0.50;;;;;;;8.19;58.14;101328.38;5083682;28;20051;-69
2023/06/03 02:44:06;;;;;;;0.40;0.40;;;;;;;8.27;58.46;101325.91;5083471;28;20025;-70
2023/06/03 02:46:32;;;;;;;0.40;0.40;;;;;;;8.28;58.28;101327.66;5083438;28;20039;-70
2023/06/03 02:48:58;;;;;;;0.40;0.40;;;;;;;8.29;58.52;101327.66;5083190;28;20077;-69
2023/06/03 02:51:23;;;;;;;0.40;0.40;;;;;;;8.31;58.48;101328.56;5083410;28;20091;-69
2023/06/03 02:53:50;;;;;;;0.40;0.40;;;;;;;8.36;58.38;101332.94;5083360;28;20094;-69
2023/06/03 02:56:15;;;;;;;0.40;0.40;;;;;;;8.26;58.17;101308.66;5083282;28;20025;-71
2023/06/03 02:58:40;;;;;;;0.40;0.40;;;;;;;8.39;58.08;101323.50;5083316;28;20032;-71
2023/06/03 03:01:06;;;;;;;0.40;0.40;;;;;;;8.43;57.86;101330.47;5083338;28;20042;-69
2023/06/03 03:03:37;;;;;;;0.40;0.40;;;;;;;8.49;57.61;101326.25;5083128;28;20381;-71
2023/06/03 03:06:03;;;;;;;0.50;0.50;;;;;;;8.51;57.85;101327.13;5085464;28;20028;-71
2023/06/03 03:08:30;;;;;;;0.40;0.40;;;;;;;8.54;57.66;101333.28;5068970;28;20524;-71
2023/06/03 03:10:55;;;;;;;0.40;0.40;;;;;;;8.56;57.43;101335.88;5086835;28;20040;-70
2023/06/03 03:13:21;;;;;;;0.40;0.40;;;;;;;8.58;57.38;101333.31;5086747;28;20029;-71
2023/06/03 03:15:46;;;;;;;0.40;0.40;;;;;;;8.59;57.24;101335.94;5086817;28;20025;-70
2023/06/03 03:18:12;;;;;;;0.45;0.45;;;;;;;8.60;56.91;101335.06;5086515;28;20028;-69
2023/06/03 03:20:37;;;;;;;0.40;0.40;;;;;;;8.61;56.87;101328.19;5086823;28;20104;-70
2023/06/03 03:23:02;;;;;;;0.40;0.40;;;;;;;8.60;56.54;101336.78;5086359;28;20028;-70
2023/06/03 03:25:28;;;;;;;0.40;0.40;;;;;;;8.61;56.68;101335.94;5086666;28;20028;-70
2023/06/03 03:27:53;;;;;;;0.63;0.63;;;;;;;8.61;56.49;101334.22;5086574;28;20141;-70
2023/06/03 03:30:19;;;;;;;0.40;0.40;;;;;;;8.65;56.56;101341.19;5086448;28;20025;-70
2023/06/03 03:32:44;;;;;;;0.40;0.40;;;;;;;8.61;56.43;101331.63;5086480;28;20051;-69
2023/06/03 03:35:13;;;;;;;0.40;0.40;;;;;;;8.66;56.51;101337.75;5086066;28;20024;-70
2023/06/03 03:37:39;;;;;;;0.40;0.40;;;;;;;8.66;56.42;101339.47;5086193;28;20309;-70
2023/06/03 03:40:15;;;;;;;0.40;0.40;;;;;;;8.67;56.46;101339.47;5068341;28;20036;-70
2023/06/03 03:42:40;;;;;;;0.40;0.40;;;;;;;8.67;56.35;101331.72;5086248;28;20484;-71
2023/06/03 03:45:15;;;;;;;0.30;0.30;;;;;;;8.77;56.26;101344.81;5086237;28;20034;-70
2023/06/03 03:47:40;;;;;;;1.23;1.15;;;;;;;8.82;56.16;101345.72;5068139;28;20028;-70
2023/06/03 03:50:13;;;;;;;0.40;0.40;;;;;;;8.86;55.98;101347.53;5085744;28;20088;-71
2023/06/03 03:52:38;;;;;;;0.47;0.47;;;;;;;8.91;55.98;101347.59;5067792;28;20035;-71
2023/06/03 03:55:04;;;;;;;0.40;0.40;;;;;;;8.86;55.94;101333.69;5085889;28;20028;-70
2023/06/03 03:57:31;;;;;;;0.40;0.40;;;;;;;8.97;56.01;101355.44;5086014;28;20078;-70
2023/06/03 03:59:57;;;;;;;0.40;0.40;;;;;;;9.01;55.97;101353.78;5086117;28;20080;-70
2023/06/03 04:02:22;;;;;;;0.40;0.40;;;;;;;9.03;56.06;101359.81;5085448;28;20044;-70
2023/06/03 04:04:48;;;;;;;0.40;0.40;;;;;;;9.07;55.95;101352.97;5085614;28;20055;-69
2023/06/03 04:07:17;;;;;;;0.40;0.40;;;;;;;9.05;56.03;101348.66;5085717;28;20020;-70
2023/06/03 04:09:43;;;;;;;0.40;0.40;;;;;;;9.14;56.07;101358.25;5085640;28;20023;-70
2023/06/03 04:12:38;;;;;;;0.40;0.40;;;;;;;9.22;56.33;101362.66;5067679;28;20092;-69
2023/06/03 04:15:04;;;;;;;0.30;0.30;;;;;;;9.23;56.35;101365.28;5072293;28;20093;-70
2023/06/03 04:17:30;;;;;;;0.40;0.40;;;;;;;9.17;56.55;101342.75;5084622;28;20106;-70
2023/06/03 04:20:00;;;;;;;0.40;0.40;;;;;;;9.31;56.56;101362.78;5067414;28;20082;-70
2023/06/03 04:22:25;;;;;;;0.40;0.40;;;;;;;9.39;56.76;101358.53;5085607;28;20025;-70
2023/06/03 04:25:07;;;;;;;0.40;0.40;;;;;;;9.44;56.69;101358.59;5085372;28;20123;-70
2023/06/03 04:27:32;;;;;;;0.40;0.40;;;;;;;9.41;56.77;101330.03;5085443;28;20028;-69
2023/06/03 04:29:57;;;;;;;0.40;0.40;;;;;;;9.63;56.93;101349.31;5085248;28;20482;-69
2023/06/03 04:32:23;;;;;;;0.40;0.40;;;;;;;9.70;56.95;101347.66;5085298;28;20032;-69
2023/06/03 04:34:54;;;;;;;0.40;0.40;;;;;;;9.80;56.92;101351.22;5085090;28;20051;-69
2023/06/03 04:37:20;;;;;;;0.30;0.30;;;;;;;9.92;56.91;101356.50;5085074;28;20080;-69
2023/06/03 04:39:46;;;;;;;0.30;0.30;;;;;;;10.01;57.02;101352.28;5085009;28;20051;-69
2023/06/03 04:42:12;;;;;;;0.40;0.40;;;;;;;10.12;56.98;101354.97;5084903;28;20024;-69
2023/06/03 04:44:41;;;;;;;0.40;0.40;;;;;;;10.21;57.12;101351.59;5083842;28;20054;-69
2023/06/03 04:47:17;;;;;;;0.40;0.40;;;;;;;10.25;57.00;101349.03;5067090;28;20446;-69
2023/06/03 04:49:47;;;;;;;0.30;0.30;;;;;;;10.26;57.13;101355.06;5066672;28;20072;-70
2023/06/03 04:52:13;;;;;;;0.30;0.30;;;;;;;10.34;57.23;101356.00;5084859;28;20036;-70
2023/06/03 04:54:40;;;;;;;0.30;0.30;;;;;;;10.44;57.04;101353.47;5084962;28;20424;-70
2023/06/03 04:57:05;;;;;;;0.40;0.40;;;;;;;10.47;56.95;101345.75;5084837;28;20485;-70
2023/06/03 04:59:31;;;;;;;0.30;0.30;;;;;;;10.52;56.98;101341.47;5084782;28;20031;-70
2023/06/03 05:01:56;;;;;;;0.30;0.30;;;;;;;10.65;57.17;101348.47;5066758;28;20044;-70
2023/06/03 05:04:22;;;;;;;0.38;0.38;;;;;;;10.82;56.84;101349.44;5084433;28;20120;-70
2023/06/03 05:06:48;;;;;;;0.30;0.30;;;;;;;10.94;56.58;101348.63;5066643;28;20017;-70
2023/06/03 05:09:15;;;;;;;0.30;0.30;;;;;;;11.03;56.53;101335.69;5066330;28;20085;-70
2023/06/03 05:11:42;;;;;;;0.30;0.30;;;;;;;11.24;56.36;101341.84;5066829;28;20021;-69
2023/06/03 05:14:08;;;;;;;0.30;0.30;;;;;;;11.39;56.22;101341.88;5066289;28;20032;-70
2023/06/03 05:16:35;;;;;;;0.30;0.30;;;;;;;11.62;55.94;101342.81;5084481;28;20046;-69
2023/06/03 05:19:00;;;;;;;0.30;0.30;;;;;;;11.75;55.57;101336.78;5085058;28;20024;-69
2023/06/03 05:21:25;;;;;;;0.30;0.30;;;;;;;11.85;55.53;101344.59;5084533;28;20170;-70
2023/06/03 05:23:52;;;;;;;0.30;0.30;;;;;;;11.90;55.50;101342.88;5084225;28;20055;-69
2023/06/03 05:26:17;;;;;;;0.30;0.30;;;;;;;11.92;55.34;101322.06;5084516;28;20020;-68
2023/06/03 05:28:43;;;;;;;0.30;0.30;;;;;;;12.08;55.49;101336.84;5084266;28;20045;-69
2023/06/03 05:31:09;;;;;;;0.30;0.30;;;;;;;12.24;55.52;101331.63;5084564;28;20075;-70
2023/06/03 05:33:37;;;;;;;0.32;0.32;;;;;;;12.41;55.08;101342.06;5084292;28;20021;-69
2023/06/03 05:36:03;;;;;;;0.30;0.30;;;;;;;12.53;55.16;101343.75;5066219;28;20020;-70
2023/06/03 05:38:30;;;;;;;0.30;0.30;;;;;;;12.68;54.74;101334.19;5084148;28;20032;-70
2023/06/03 05:40:56;;;;;;;0.30;0.30;;;;;;;12.93;54.75;101341.91;5065983;28;20027;-70
2023/06/03 05:43:23;;;;;;;0.30;0.30;;;;;;;13.18;54.69;101349.69;5084058;28;20024;-71
2023/06/03 05:45:49;;;;;;;0.30;0.30;;;;;;;13.43;54.42;101345.22;5083961;28;20025;-69
2023/06/03 05:48:15;;;;;;;0.82;0.82;;;;;;;13.76;53.98;101347.66;5083730;28;20084;-69
2023/06/03 05:50:48;;;;;;;3.63;1.05;;;;;;;14.03;54.29;101329.16;5083629;28;20047;-69
2023/06/03 05:53:14;;;;;;;0.30;0.30;;;;;;;14.54;53.84;101348.75;5065848;28;20038;-69
2023/06/03 05:55:39;;;;;;;0.50;0.50;;;;;;;14.90;52.73;101351.91;5065680;28;20028;-69
2023/06/03 05:58:05;;;;;;;0.30;0.30;;;;;;;15.19;52.54;101348.06;5065918;28;20031;-69
2023/06/03 06:00:31;;;;;;;0.30;0.30;;;;;;;15.46;51.70;101356.44;5083892;28;20070;-68
2023/06/03 06:02:56;;;;;;;0.30;0.30;;;;;;;15.55;50.96;101350.22;5083552;28;20052;-70
2023/06/03 06:05:21;;;;;;;0.30;0.30;;;;;;;15.68;50.32;101355.25;5083836;28;20033;-69
2023/06/03 06:07:47;;;;;;;0.30;0.30;;;;;;;15.85;50.64;101349.78;5083899;28;20028;-69
2023/06/03 06:10:12;;;;;;;0.32;0.32;;;;;;;16.08;50.43;101348.59;5083959;28;20024;-70
2023/06/03 06:12:38;;;;;;;0.30;0.30;;;;;;;16.41;50.14;101351.50;5083538;28;20144;-69
2023/06/03 06:15:04;;;;;;;0.20;0.20;;;;;;;16.64;48.78;101346.75;5065872;28;20028;-69
2023/06/03 06:17:29;;;;;;;0.20;0.20;;;;;;;16.95;48.87;101346.13;5083855;28;20538;-69
2023/06/03 06:19:55;;;;;;;0.20;0.20;;;;;;;17.29;48.71;101348.09;5083461;28;20025;-69
2023/06/03 06:22:20;;;;;;;0.20;0.20;;;;;;;17.60;48.25;101351.81;5083598;28;20043;-70
2023/06/03 06:24:46;;;;;;;0.20;0.20;;;;;;;17.80;47.97;101361.84;5083893;28;20025;-68
2023/06/03 06:27:12;;;;;;;0.20;0.20;;;;;;;18.00;47.37;101342.13;5083746;28;20025;-69
2023/06/03 06:29:37;;;;;;;0.30;0.30;;;;;;;18.19;46.49;101349.56;5083606;28;20324;-68
2023/06/03 06:32:06;;;;;;;0.20;0.20;;;;;;;18.48;46.31;101350.59;5083447;28;20024;-68
2023/06/03 06:34:34;;;;;;;0.20;0.20;;;;;;;18.69;45.93;101340.38;5065171;28;20074;-69
2023/06/03 06:37:00;;;;;;;0.30;0.30;;;;;;;19.03;45.38;101341.16;5083461;28;20036;-69
2023/06/03 06:39:35;;;;;;;0.20;0.20;;;;;;;19.21;44.36;101339.81;5065446;28;20071;-68
2023/06/03 06:42:15;;;;;;;0.20;0.20;;;;;;;19.36;43.85;101333.19;5087498;28;20411;-68
2023/06/03 06:44:48;;;;;;;0.20;0.20;;;;;;;19.60;43.56;101337.78;5087582;28;20054;-69
2023/06/03 06:47:21;;;;;;;0.20;0.20;;;;;;;19.60;43.15;101338.59;5068510;28;20040;-68
2023/06/03 06:49:48;;;;;;;0.20;0.20;;;;;;;20.02;43.60;101334.66;5087055;28;20050;-69
2023/06/03 06:52:14;;;;;;;0.20;0.20;;;;;;;20.22;43.18;101340.19;5087025;28;20029;-69
2023/06/03 06:54:40;;;;;;;0.20;0.20;;;;;;;20.24;41.30;101333.09;5087035;28;20036;-69
2023/06/03 06:57:06;;;;;;;0.20;0.20;;;;;;;20.14;40.08;101330.78;5086985;28;20044;-68
2023/06/03 06:59:32;;;;;;;0.20;0.20;;;;;;;20.08;40.92;101324.84;5086560;28;20028;-69
2023/06/03 07:01:57;;;;;;;0.20;0.20;;;;;;;20.18;40.55;101329.75;5086192;28;20063;-69
2023/06/03 07:04:23;;;;;;;0.20;0.20;;;;;;;20.08;39.97;101324.84;5068666;28;20088;-69
2023/06/03 07:06:50;;;;;;;0.20;0.20;;;;;;;20.02;40.54;101326.75;5086821;28;20036;-69
2023/06/03 07:09:15;;;;;;;0.20;0.20;;;;;;;20.01;40.23;101327.66;5086542;28;20043;-68
2023/06/03 07:11:45;;;;;;;0.20;0.20;;;;;;;19.90;40.12;101309.56;5086790;28;20021;-69
2023/06/03 07:14:11;;;;;;;0.20;0.20;;;;;;;20.20;39.53;101334.97;5086706;28;20465;-69
2023/06/03 07:16:36;;;;;;;0.25;0.25;;;;;;;20.21;37.69;101328.75;5068461;28;20030;-69
2023/06/03 07:19:05;;;;;;;0.20;0.20;;;;;;;20.27;38.00;101328.56;5086413;28;20356;-70
2023/06/03 07:21:34;;;;;;;0.20;0.20;;;;;;;20.40;37.96;101318.44;5086537;28;20024;-68
2023/06/03 07:23:59;;;;;;;0.20;0.20;;;;;;;20.42;37.09;101324.53;5086747;28;20016;-69
2023/06/03 07:26:27;;;;;;;0.20;0.20;;;;;;;20.40;36.74;101328.97;5086522;28;20484;-70
2023/06/03 07:28:56;;;;;;;0.20;0.20;;;;;;;20.30;37.10;101328.44;5086381;28;20025;-68
2023/06/03 07:31:22;;;;;;;1.25;1.20;;;;;;;20.36;36.27;101318.59;5086451;28;20024;-67
2023/06/03 07:33:53;;;;;;;0.20;0.20;;;;;;;20.23;35.95;101315.53;5086186;28;20029;-68
2023/06/03 07:36:24;;;;;;;0.20;0.20;;;;;;;20.00;35.81;101325.06;5086429;28;20048;-69
2023/06/03 07:39:03;;;;;;;0.20;0.20;;;;;;;19.80;35.81;101327.44;5086614;28;20032;-68
2023/06/03 07:41:45;;;;;;;0.20;0.20;;;;;;;19.81;36.50;101321.25;5086163;28;20537;-68
2023/06/03 07:44:12;;;;;;;0.20;0.20;;;;;;;20.45;35.95;101323.53;5067957;28;20032;-68
2023/06/03 07:46:48;;;;;;;0.20;0.20;;;;;;;21.05;35.37;101315.22;5068006;28;20095;-69
2023/06/03 07:49:16;;;;;;;0.20;0.20;;;;;;;21.48;34.76;101310.97;5085632;28;20020;-67
2023/06/03 07:51:47;;;;;;;0.20;0.20;;;;;;;22.08;34.42;101317.41;5086104;28;20024;-68
2023/06/03 07:54:14;;;;;;;0.20;0.20;;;;;;;22.78;32.64;101314.34;5085901;28;20027;-66
2023/06/03 07:56:40;;;;;;;0.20;0.20;;;;;;;23.42;32.86;101308.78;5085826;28;20119;-68
2023/06/03 07:59:09;;;;;;;0.20;0.20;;;;;;;24.07;31.87;101303.84;5085669;28;20105;-67
2023/06/03 08:01:35;;;;;;;0.20;0.20;;;;;;;24.51;30.84;101303.34;5085854;28;20126;-67
2023/06/03 08:04:22;;;;;;;0.10;0.10;;;;;;;24.73;29.51;101306.59;5085398;28;20028;-67
2023/06/03 08:06:52;;;;;;;0.20;0.20;;;;;;;24.54;26.66;101294.34;5085729;28;20024;-67
2023/06/03 08:09:26;;;;;;;0.20;0.20;;;;;;;24.44;26.19;101301.94;5085697;28;20107;-67
2023/06/03 08:11:51;;;;;;;0.10;0.10;;;;;;;24.67;25.59;101304.28;5085669;28;20047;-68
2023/06/03 08:14:20;;;;;;;0.20;0.20;;;;;;;24.95;26.28;101306.31;5085183;28;20472;-68
2023/06/03 08:16:46;;;;;;;0.20;0.20;;;;;;;25.13;25.37;101295.63;5085374;28;20028;-67
2023/06/03 08:19:13;;;;;;;0.10;0.10;;;;;;;25.18;24.95;101311.28;5085162;28;20020;-68
2023/06/03 08:21:41;;;;;;;0.20;0.20;;;;;;;25.22;25.24;101307.53;5085443;28;20092;-67
2023/06/03 08:24:08;;;;;;;0.20;0.20;;;;;;;25.46;25.33;101317.72;5085456;28;20024;-68
2023/06/03 08:26:36;;;;;;;0.20;0.20;;;;;;;25.83;25.17;101307.59;5085363;28;20036;-65
2023/06/03 08:29:03;;;;;;;0.15;0.15;;;;;;;26.09;24.54;101312.31;5066997;28;20058;-69
2023/06/03 08:31:32;;;;;;;0.10;0.10;;;;;;;26.13;24.38;101308.53;5085288;28;20020;-74
2023/06/03 08:33:57;;;;;;;0.10;0.10;;;;;;;26.39;24.00;101313.25;5084864;28;20021;-68
2023/06/03 08:36:23;;;;;;;0.10;0.10;;;;;;;26.17;23.61;101303.88;5084978;28;20021;-69
2023/06/03 08:38:48;;;;;;;0.20;0.20;;;;;;;26.20;23.26;101312.53;5085045;28;20020;-70
2023/06/03 08:41:14;;;;;;;0.50;0.50;;;;;;;25.96;23.73;101315.72;5085052;28;20048;-62
2023/06/03 08:43:50;;;;;;;0.17;0.17;;;;;;;26.01;22.81;101309.28;5066872;28;20055;-65
2023/06/03 08:46:28;;;;;;;0.10;0.10;;;;;;;25.93;23.47;101315.91;5084798;28;20085;-64
2023/06/03 08:49:07;;;;;;;0.20;0.20;;;;;;;25.78;23.72;101315.03;5084679;28;20012;-66
2023/06/03 08:51:42;;;;;;;0.22;0.22;;;;;;;25.91;23.66;101309.81;5084878;28;20051;-68
2023/06/03 08:54:17;;;;;;;0.10;0.10;;;;;;;26.20;22.84;101298.38;5084743;28;20165;-67
2023/06/03 08:57:00;;;;;;;0.15;0.15;;;;;;;26.31;22.02;101305.72;5084913;28;20028;-66
2023/06/03 08:59:28;;;;;;;0.10;0.10;;;;;;;26.43;22.32;101314.75;5068393;28;20020;-67
2023/06/03 09:01:56;;;;;;;0.10;0.10;;;;;;;26.43;22.20;101294.34;5084507;28;20079;-72
2023/06/03 09:04:22;;;;;;;0.10;0.10;;;;;;;26.66;21.63;101297.34;5083623;28;20030;-71
2023/06/03 09:06:49;;;;;;;0.10;0.10;;;;;;;26.65;21.00;101290.31;5084855;28;20052;-69
2023/06/03 09:09:15;;;;;;;0.10;0.10;;;;;;;26.81;20.86;101300.88;5084436;28;20056;-65
2023/06/03 09:11:43;;;;;;;0.10;0.10;;;;;;;26.89;20.74;101296.84;5084329;28;20024;-63
2023/06/03 09:14:10;;;;;;;0.10;0.10;;;;;;;27.04;20.97;101292.38;5084418;28;20017;-68
2023/06/03 09:16:36;;;;;;;1.13;1.13;;;;;;;27.25;21.34;101295.47;5084425;28;20032;-75
2023/06/03 09:19:02;;;;;;;0.10;0.10;;;;;;;27.37;20.56;101296.47;5083970;28;20027;-78
2023/06/03 09:21:28;;;;;;;0.10;0.10;;;;;;;27.20;21.16;101287.78;5084274;28;20020;-69
2023/06/03 09:23:54;;;;;;;0.10;0.10;;;;;;;27.30;21.85;101295.16;5065979;28;20032;-74
2023/06/03 09:26:21;;;;;;;0.10;0.10;;;;;;;27.40;21.68;101293.59;5083933;28;20502;-71
2023/06/03 09:28:46;;;;;;;0.10;0.10;;;;;;;27.25;21.88;101289.28;5065886;28;20023;-70
2023/06/03 09:31:12;;;;;;;635.75;162.98;;;;;;;26.97;21.86;101292.75;5084195;28;20021;-74
2023/06/03 09:33:38;;;;;;;0.10;0.10;;;;;;;26.87;23.17;101291.63;5083645;28;20023;-67
2023/06/03 09:36:12;;;;;;;0.10;0.10;;;;;;;27.03;22.80;101288.03;5065624;28;20021;-69
2023/06/03 09:38:51;;;;;;;0.10;0.10;;;;;;;27.00;22.28;101288.19;5065709;28;20031;-70
2023/06/03 09:41:19;;;;;;;0.10;0.10;;;;;;;27.34;22.60;101288.66;5084003;28;20024;-70
2023/06/03 09:43:57;;;;;;;0.10;0.10;;;;;;;27.26;22.40;101285.66;5083949;28;20076;-70
2023/06/03 09:46:24;;;;;;;0.10;0.10;;;;;;;27.16;22.50;101288.06;5065739;28;20020;-69
2023/06/03 09:48:50;;;;;;;0.10;0.10;;;;;;;26.93;23.53;101291.25;5065354;28;20238;-70
2023/06/03 09:51:15;;;;;;;0.10;0.10;;;;;;;26.89;23.50;101278.19;5083606;28;20024;-72
2023/06/03 09:53:41;;;;;;;0.10;0.10;;;;;;;26.93;23.29;101285.91;5065515;28;20017;-70
2023/06/03 09:56:26;;;;;;;0.10;0.10;;;;;;;26.95;22.51;101289.31;5084099;28;20031;-69
2023/06/03 09:59:31;;;;;;;0.10;0.10;;;;;;;26.98;23.23;101281.13;5082599;28;20049;-70
2023/06/03 10:01:56;;;;;;;0.10;0.10;;;;;;;26.54;23.02;101279.50;5068890;28;20033;-70
2023/06/03 10:04:23;;;;;;;0.10;0.10;;;;;;;26.30;24.12;101280.03;5065232;28;20493;-71
2023/06/03 10:07:18;;;;;;;0.10;0.10;;;;;;;26.21;25.31;101289.44;5083878;28;20020;-69
2023/06/03 10:09:45;;;;;;;0.10;0.10;;;;;;;26.55;24.39;101283.88;5056950;28;20055;-70
2023/06/03 10:12:11;;;;;;;0.10;0.10;;;;;;;26.51;24.41;101279.69;5083732;28;20040;-71
2023/06/03 10:14:48;;;;;;;0.10;0.10;;;;;;;26.61;24.57;101280.81;5083628;28;20025;-72
2023/06/03 10:17:17;;;;;;;0.10;0.10;;;;;;;26.81;23.91;101279.56;5070021;28;20048;-73
2023/06/03 10:19:44;;;;;;;0.10;0.10;;;;;;;26.63;23.65;101278.91;5087815;28;20503;-72
2023/06/03 10:22:17;;;;;;;0.10;0.10;;;;;;;26.50;23.89;101285.97;5087823;28;20035;-70
2023/06/03 10:24:45;;;;;;;0.10;0.10;;;;;;;26.41;24.53;101285.59;5069444;28;20024;-72
2023/06/03 10:27:12;;;;;;;0.10;0.10;;;;;;;26.57;23.20;101279.28;5086489;28;20032;-71
2023/06/03 10:29:38;;;;;;;0.10;0.10;;;;;;;26.33;23.39;101272.75;5087867;28;20032;-72
2023/06/03 10:32:06;;;;;;;0.10;0.10;;;;;;;25.98;23.53;101279.25;5086319;28;20024;-72
2023/06/03 10:34:36;;;;;;;0.30;0.30;;;;;;;25.83;22.94;101282.84;5087225;28;20104;-71
2023/06/03 10:37:05;;;;;;;0.10;0.10;;;;;;;25.70;21.72;101280.03;5087499;28;20059;-71
2023/06/03 10:39:31;;;;;;;0.20;0.20;;;;;;;25.45;19.88;101276.13;5087369;28;20035;-72
2023/06/03 10:42:01;;;;;;;0.30;0.30;;;;;;;25.34;20.70;101276.75;5069375;28;20029;-73
2023/06/03 10:44:28;;;;;;;0.10;0.10;;;;;;;25.22;22.31;101276.53;5087366;28;20021;-72
2023/06/03 10:47:00;;;;;;;0.10;0.10;;;;;;;24.94;23.80;101278.06;5086085;28;20020;-71
2023/06/03 10:49:30;;;;;;;0.10;0.10;;;;;;;24.86;23.63;101274.94;5087076;28;20565;-69
2023/06/03 10:52:22;;;;;;;0.10;0.10;;;;;;;24.76;24.26;101277.25;5086187;28;20492;-71
2023/06/03 10:55:00;;;;;;;0.10;0.10;;;;;;;24.63;24.32;101277.91;5069143;28;20012;-69
2023/06/03 10:57:35;;;;;;;0.10;0.10;;;;;;;24.04;24.97;101275.69;5087290;28;20027;-71
2023/06/03 11:00:00;;;;;;;0.17;0.17;;;;;;;23.32;25.50;101263.31;5087333;28;20384;-71
2023/06/03 11:02:26;;;;;;;0.10;0.10;;;;;;;22.77;25.69;101271.16;5068983;28;20050;-71
2023/06/03 11:05:21;;;;;;;0.10;0.10;;;;;;;22.10;25.64;101260.00;5068664;28;20149;-72
2023/06/03 11:07:46;;;;;;;0.20;0.20;;;;;;;21.61;25.11;101267.31;5068933;28;20035;-72
2023/06/03 11:10:39;;;;;;;0.10;0.10;;;;;;;21.16;26.96;101272.59;5086895;28;20016;-72
2023/06/03 11:13:05;;;;;;;0.20;0.20;;;;;;;20.77;28.15;101257.31;5086693;28;20039;-72
2023/06/03 11:15:59;;;;;;;0.20;0.20;;;;;;;20.48;28.88;101260.13;5087303;28;20052;-72
2023/06/03 11:18:24;;;;;;;0.20;0.20;;;;;;;20.12;29.81;101257.91;5086677;28;20380;-71
2023/06/03 11:20:50;;;;;;;0.20;0.20;;;;;;;19.90;29.75;101259.50;5086524;28;20469;-72
2023/06/03 11:23:40;;;;;;;0.20;0.20;;;;;;;19.68;30.38;101264.63;5086586;28;20020;-72
2023/06/03 11:26:29;;;;;;;0.30;0.30;;;;;;;19.38;30.02;101256.78;5086238;28;20028;-71
2023/06/03 11:28:54;;;;;;;3.40;1.65;;;;;;;19.11;29.34;101251.50;5078756;28;20118;-72
2023/06/03 11:31:20;;;;;;;0.20;0.20;;;;;;;18.92;30.88;101246.78;5068431;28;20469;-73
2023/06/03 11:34:23;;;;;;;0.20;0.20;;;;;;;18.72;33.03;101266.66;5086238;28;20047;-72
2023/06/03 11:36:51;;;;;;;0.30;0.30;;;;;;;18.55;33.32;101249.59;5086486;28;20017;-73